createdAt,value
2019-06-01T00:01:15.838Z,101340.83
2019-06-01T00:03:46.422Z,101336.80
2019-06-01T00:06:16.160Z,101334.20
2019-06-01T00:08:45.666Z,101336.89
2019-06-01T00:11:15.467Z,101339.23
2019-06-01T00:13:45.609Z,101337.03
2019-06-01T00:16:15.196Z,101337.03
2019-06-01T00:18:45.939Z,101329.92
2019-06-01T00:21:15.562Z,101335.78
2019-06-01T00:23:46.473Z,101339.81
2019-06-01T00:26:16.115Z,101336.30
2019-06-01T00:28:45.835Z,101337.73
2019-06-01T00:31:15.389Z,101349.84
2019-06-01T00:33:45.441Z,101346.28
2019-06-01T00:36:15.067Z,101340.91
2019-06-01T00:38:45.672Z,101350.45
2019-06-01T00:41:15.245Z,101353.62
2019-06-01T00:43:44.728Z,101346.52
2019-06-01T00:46:14.280Z,101355.44
2019-06-01T00:48:43.855Z,101346.16
2019-06-01T00:51:13.647Z,101349.33
2019-06-01T00:53:43.423Z,101344.33
2019-06-01T00:56:12.918Z,101346.16
2019-06-01T00:58:43.643Z,101352.40
2019-06-01T01:01:13.608Z,101352.88
2019-06-01T01:03:43.930Z,101349.71
2019-06-01T01:06:13.637Z,101343.47
2019-06-01T01:08:43.124Z,101342.48
2019-06-01T01:11:12.680Z,101342.48
2019-06-01T01:13:42.150Z,101340.30
2019-06-01T01:16:11.704Z,101338.95
2019-06-01T01:18:41.181Z,101340.66
2019-06-01T01:21:10.770Z,101336.62
2019-06-01T01:23:40.198Z,101341.03
2019-06-01T01:26:09.705Z,101344.59
2019-06-01T01:28:39.160Z,101334.31
2019-06-01T01:31:13.672Z,101330.28
2019-06-01T01:33:39.824Z,101341.39
2019-06-01T01:36:09.329Z,101333.83
2019-06-01T01:38:38.847Z,101331.02
2019-06-01T01:41:08.372Z,101328.80
2019-06-01T01:43:37.896Z,101330.15
2019-06-01T01:46:07.486Z,101331.02
2019-06-01T01:48:36.952Z,101327.45
2019-06-01T01:51:06.555Z,101326.50
2019-06-01T01:53:36.023Z,101321.60
2019-06-01T01:56:05.768Z,101317.57
2019-06-01T01:58:35.229Z,101315.27
2019-06-01T02:01:20.717Z,101318.43
2019-06-01T02:03:36.028Z,101317.47
2019-06-01T02:06:05.807Z,101314.65
2019-06-01T02:08:35.332Z,101316.48
2019-06-01T02:11:04.731Z,101308.79
2019-06-01T02:13:34.247Z,101307.06
2019-06-01T02:16:03.704Z,101310.14
2019-06-01T02:18:33.231Z,101311.83
2019-06-01T02:21:02.834Z,101305.97
2019-06-01T02:23:32.280Z,101303.28
2019-06-01T02:26:03.174Z,101297.42
2019-06-01T02:28:32.990Z,101303.18
2019-06-01T02:31:03.912Z,101299.15
2019-06-01T02:33:33.575Z,101301.23
2019-06-01T02:36:05.076Z,101299.65
2019-06-01T02:38:34.228Z,101300.38
2019-06-01T02:41:05.669Z,101304.31
2019-06-01T02:43:35.030Z,101298.61
2019-06-01T02:46:05.513Z,101292.96
2019-06-01T02:48:35.622Z,101291.77
2019-06-01T02:51:05.560Z,101298.13
2019-06-01T02:53:35.935Z,101294.72
2019-06-01T02:56:06.248Z,101290.31
2019-06-01T02:58:35.745Z,101290.42
2019-06-01T03:01:31.044Z,101284.33
2019-06-01T03:04:01.390Z,101290.68
2019-06-01T03:06:32.521Z,101285.92
2019-06-01T03:09:03.973Z,101285.55
2019-06-01T03:11:36.571Z,101290.70
2019-06-01T03:14:08.921Z,101289.49
2019-06-01T03:16:42.516Z,101291.81
2019-06-01T03:19:13.626Z,101291.81
2019-06-01T03:21:45.776Z,101292.78
2019-06-01T03:24:15.302Z,101292.89
2019-06-01T03:26:47.325Z,101291.23
2019-06-01T03:29:21.728Z,101293.55
2019-06-01T03:31:51.301Z,101290.47
2019-06-01T03:34:20.917Z,101294.51
2019-06-01T03:36:50.589Z,101289.60
2019-06-01T03:39:20.636Z,101287.87
2019-06-01T03:41:50.379Z,101283.97
2019-06-01T03:44:22.688Z,101294.36
2019-06-01T03:46:53.944Z,101288.34
2019-06-01T03:49:23.395Z,101280.50
2019-06-01T03:51:52.838Z,101283.95
2019-06-01T03:54:22.481Z,101282.95
2019-06-01T03:56:51.984Z,101277.45
2019-06-01T03:59:21.506Z,101274.75
2019-06-01T04:01:51.043Z,101277.31
2019-06-01T04:04:20.524Z,101268.84
2019-06-01T04:06:49.994Z,101265.81
2019-06-01T04:09:19.586Z,101269.47
2019-06-01T04:11:49.045Z,101274.00
2019-06-01T04:14:18.531Z,101277.70
2019-06-01T04:16:48.034Z,101276.84
2019-06-01T04:19:17.612Z,101278.66
2019-06-01T04:21:47.131Z,101273.28
2019-06-01T04:24:16.660Z,101275.11
2019-06-01T04:26:46.136Z,101268.03
2019-06-01T04:29:15.713Z,101271.59
2019-06-01T04:31:45.178Z,101271.59
2019-06-01T04:34:14.677Z,101272.42
2019-06-01T04:36:44.178Z,101270.09
2019-06-01T04:39:13.826Z,101279.91
2019-06-01T04:41:43.319Z,101275.73
2019-06-01T04:44:14.346Z,101285.39
2019-06-01T04:46:43.902Z,101281.84
2019-06-01T04:49:14.899Z,101283.91
2019-06-01T04:51:44.641Z,101287.95
2019-06-01T04:54:15.703Z,101283.91
2019-06-01T04:56:45.265Z,101283.80
2019-06-01T04:59:15.326Z,101289.19
2019-06-01T05:01:45.035Z,101284.66
2019-06-01T05:04:15.491Z,101280.97
2019-06-01T05:06:45.261Z,101276.44
2019-06-01T05:09:15.739Z,101283.06
2019-06-01T05:11:45.458Z,101275.33
2019-06-01T05:14:16.555Z,101278.74
2019-06-01T05:16:46.281Z,101275.56
2019-06-01T05:19:16.638Z,101280.22
2019-06-01T05:21:46.363Z,101278.87
2019-06-01T05:24:17.166Z,101274.69
2019-06-01T05:26:47.042Z,101262.79
2019-06-01T05:29:18.028Z,101266.20
2019-06-01T05:31:48.171Z,101265.23
2019-06-01T05:34:18.320Z,101266.95
2019-06-01T05:36:48.427Z,101265.61
2019-06-01T05:39:18.681Z,101260.97
2019-06-01T05:41:48.552Z,101257.38
2019-06-01T05:44:19.309Z,101265.95
2019-06-01T05:46:49.094Z,101253.83
2019-06-01T05:49:18.686Z,101247.95
2019-06-01T05:51:48.339Z,101245.73
2019-06-01T05:54:18.905Z,101247.08
2019-06-01T05:56:48.487Z,101244.53
2019-06-01T05:59:18.368Z,101248.44
2019-06-01T06:01:47.956Z,101245.73
2019-06-01T06:04:17.627Z,101247.23
2019-06-01T06:06:47.180Z,101245.39
2019-06-01T06:09:17.170Z,101241.35
2019-06-01T06:11:46.839Z,101248.58
2019-06-01T06:14:17.619Z,101240.98
2019-06-01T06:16:47.291Z,101245.02
2019-06-01T06:19:20.230Z,101244.16
2019-06-01T06:21:48.096Z,101237.80
2019-06-01T06:24:18.542Z,101235.58
2019-06-01T06:26:48.089Z,101240.00
2019-06-01T06:29:18.825Z,101232.89
2019-06-01T06:31:48.534Z,101232.03
2019-06-01T06:34:19.595Z,101230.19
2019-06-01T06:36:49.349Z,101226.52
2019-06-01T06:39:19.962Z,101224.69
2019-06-01T06:41:49.598Z,101225.03
2019-06-01T06:44:19.137Z,101220.05
2019-06-01T06:46:48.588Z,101217.70
2019-06-01T06:49:19.162Z,101212.69
2019-06-01T06:51:48.727Z,101209.36
2019-06-01T06:54:18.292Z,101202.84
2019-06-01T06:56:47.784Z,101201.88
2019-06-01T06:59:18.474Z,101190.08
2019-06-01T07:01:48.176Z,101190.45
2019-06-01T07:04:18.927Z,101196.23
2019-06-01T07:06:48.714Z,101186.27
2019-06-01T07:09:18.245Z,101180.88
2019-06-01T07:11:47.755Z,101182.23
2019-06-01T07:14:17.223Z,101180.39
2019-06-01T07:16:46.751Z,101179.53
2019-06-01T07:19:16.266Z,101171.96
2019-06-01T07:21:46.224Z,101168.75
2019-06-01T07:24:15.774Z,101170.95
2019-06-01T07:26:45.356Z,101161.03
2019-06-01T07:29:14.885Z,101166.31
2019-06-01T07:31:44.494Z,101155.53
2019-06-01T07:34:29.597Z,101146.58
2019-06-01T07:36:45.286Z,101143.39
2019-06-01T07:39:14.880Z,101140.18
2019-06-01T07:41:44.473Z,101130.25
2019-06-01T07:44:14.078Z,101135.65
2019-06-01T07:46:43.583Z,101131.38
2019-06-01T07:49:15.418Z,101128.19
2019-06-01T07:51:45.333Z,101126.47
2019-06-01T07:54:14.842Z,101119.88
2019-06-01T07:56:44.378Z,101118.05
2019-06-01T07:59:13.901Z,101105.53
2019-06-01T08:01:43.438Z,101102.84
2019-06-01T08:04:13.042Z,101106.02
2019-06-01T08:06:46.625Z,101096.25
2019-06-01T08:09:13.714Z,101096.25
2019-06-01T08:11:43.278Z,101087.30
2019-06-01T08:14:12.740Z,101089.99
2019-06-01T08:16:42.233Z,101082.88
2019-06-01T08:19:11.796Z,101078.34
2019-06-01T08:21:41.301Z,101074.30
2019-06-01T08:24:10.943Z,101071.98
2019-06-01T08:26:40.490Z,101073.67
2019-06-01T08:29:10.010Z,101074.53
2019-06-01T08:31:39.506Z,101064.46
2019-06-01T08:34:09.213Z,101077.34
2019-06-01T08:36:38.827Z,101078.77
2019-06-01T08:39:08.491Z,101074.23
2019-06-01T08:41:37.957Z,101078.61
2019-06-01T08:44:07.441Z,101076.78
2019-06-01T08:46:37.092Z,101076.30
2019-06-01T08:49:06.732Z,101067.34
2019-06-01T08:51:36.328Z,101067.34
2019-06-01T08:54:06.061Z,101072.39
2019-06-01T08:56:35.713Z,101064.80
2019-06-01T08:59:05.312Z,101059.89
2019-06-01T09:01:35.053Z,101056.82
2019-06-01T09:04:04.836Z,101059.41
2019-06-01T09:06:35.709Z,101061.23
2019-06-01T09:09:06.998Z,101054.01
2019-06-01T09:11:36.580Z,101049.59
2019-06-01T09:14:06.256Z,101055.84
2019-06-01T09:16:36.078Z,101050.45
2019-06-01T09:19:05.762Z,101049.59
2019-06-01T09:21:35.718Z,101050.60
2019-06-01T09:24:05.486Z,101035.55
2019-06-01T09:26:36.096Z,101023.05
2019-06-01T09:29:06.176Z,101027.58
2019-06-01T09:31:36.683Z,101025.86
2019-06-01T09:34:06.381Z,101018.89
2019-06-01T09:36:36.822Z,101019.04
2019-06-01T09:39:08.813Z,101016.83
2019-06-01T09:41:38.474Z,101012.23
2019-06-01T09:44:08.036Z,101011.14
2019-06-01T09:46:37.570Z,101000.96
2019-06-01T09:49:07.185Z,101010.52
2019-06-01T09:51:37.784Z,101001.72
2019-06-01T09:54:07.614Z,101000.14
2019-06-01T09:56:39.278Z,100994.87
2019-06-01T09:59:08.271Z,101007.63
2019-06-01T10:01:38.854Z,100998.83
2019-06-01T10:04:10.110Z,100996.28
2019-06-01T10:06:39.671Z,100999.09
2019-06-01T10:09:10.026Z,100992.13
2019-06-01T10:11:39.567Z,100993.97
2019-06-01T10:14:09.276Z,100999.84
2019-06-01T10:16:39.110Z,101001.83
2019-06-01T10:19:08.672Z,100978.58
2019-06-01T10:21:38.198Z,100982.73
2019-06-01T10:24:07.887Z,100976.48
2019-06-01T10:26:37.680Z,100967.20
2019-06-01T10:29:07.289Z,100976.27
2019-06-01T10:31:40.146Z,100952.16
2019-06-01T10:34:08.161Z,100954.86
2019-06-01T10:36:38.071Z,100953.14
2019-06-01T10:39:08.794Z,100944.34
2019-06-01T10:41:39.485Z,100952.42
2019-06-01T10:44:09.109Z,100939.96
2019-06-01T10:46:40.047Z,100938.73
2019-06-01T10:49:09.807Z,100933.83
2019-06-01T10:51:40.362Z,100934.69
2019-06-01T10:54:10.128Z,100938.36
2019-06-01T10:56:40.516Z,100926.23
2019-06-01T10:59:10.277Z,100934.32
2019-06-01T11:01:40.913Z,100923.05
2019-06-01T11:04:11.994Z,100928.93
2019-06-01T11:06:47.735Z,100921.70
2019-06-01T11:09:12.890Z,100914.11
2019-06-01T11:11:43.194Z,100894.91
2019-06-01T11:14:12.731Z,100890.87
2019-06-01T11:16:43.875Z,100892.71
2019-06-01T11:19:14.030Z,100888.30
2019-06-01T11:21:43.743Z,100887.47
2019-06-01T11:24:13.479Z,100890.28
2019-06-01T11:26:43.887Z,100886.23
2019-06-01T11:29:13.470Z,100879.16
2019-06-01T11:31:44.238Z,100874.27
2019-06-01T11:34:13.956Z,100874.75
2019-06-01T11:37:03.655Z,100877.59
2019-06-01T11:39:14.673Z,100874.53
2019-06-01T11:41:44.765Z,100871.35
2019-06-01T11:44:14.471Z,100869.30
2019-06-01T11:46:45.161Z,100876.03
2019-06-01T11:49:14.722Z,100864.52
2019-06-01T11:51:45.278Z,100866.38
2019-06-01T11:54:14.970Z,100860.62
2019-06-01T11:56:45.492Z,100854.00
2019-06-01T11:59:15.234Z,100851.83
2019-06-01T12:01:46.049Z,100844.72
2019-06-01T12:04:15.719Z,100842.03
2019-06-01T12:06:46.294Z,100839.82
2019-06-01T12:09:15.996Z,100836.27
2019-06-01T12:11:46.444Z,100836.27
2019-06-01T12:14:15.987Z,100834.09
2019-06-01T12:16:46.766Z,100828.83
2019-06-01T12:19:16.496Z,100829.69
2019-06-01T12:21:47.280Z,100821.23
2019-06-01T12:24:16.988Z,100810.47
2019-06-01T12:26:47.619Z,100813.16
2019-06-01T12:29:17.214Z,100798.50
2019-06-01T12:31:48.054Z,100791.77
2019-06-01T12:34:17.709Z,100784.66
2019-06-01T12:36:48.477Z,100778.78
2019-06-01T12:39:18.237Z,100776.58
2019-06-01T12:41:47.927Z,100781.63
2019-06-01T12:44:17.482Z,100776.25
2019-06-01T12:46:47.287Z,100775.39
2019-06-01T12:49:16.894Z,100765.11
2019-06-01T12:51:47.073Z,100754.48
2019-06-01T12:54:16.767Z,100757.17
2019-06-01T12:56:47.747Z,100750.56
2019-06-01T12:59:17.627Z,100743.49
2019-06-01T13:01:47.357Z,100742.14
2019-06-01T13:04:16.961Z,100744.47
2019-06-01T13:06:50.325Z,100740.05
2019-06-01T13:09:17.693Z,100737.52
2019-06-01T13:11:47.389Z,100736.02
2019-06-01T13:14:17.129Z,100732.13
2019-06-01T13:16:57.076Z,100725.03
2019-06-01T13:19:17.972Z,100724.20
2019-06-01T13:21:47.547Z,100725.64
2019-06-01T13:24:17.086Z,100721.26
2019-06-01T13:26:47.684Z,100710.27
2019-06-01T13:29:17.319Z,100707.06
2019-06-01T13:31:48.150Z,100699.13
2019-06-01T13:34:17.876Z,100697.42
2019-06-01T13:36:48.835Z,100689.86
2019-06-01T13:39:18.646Z,100682.77
2019-06-01T13:41:49.506Z,100674.31
2019-06-01T13:44:19.210Z,100673.83
2019-06-01T13:46:49.455Z,100674.80
2019-06-01T13:49:19.099Z,100671.29
2019-06-01T13:51:48.674Z,100667.73
2019-06-01T13:54:18.191Z,100665.91
2019-06-01T13:56:48.823Z,100654.77
2019-06-01T13:59:18.527Z,100648.89
2019-06-01T14:01:48.815Z,100648.89
2019-06-01T14:04:18.369Z,100635.44
2019-06-01T14:06:49.012Z,100635.92
2019-06-01T14:09:21.822Z,100630.91
2019-06-01T14:11:49.870Z,100631.89
2019-06-01T14:14:19.372Z,100637.76
2019-06-01T14:16:49.518Z,100632.38
2019-06-01T14:19:19.097Z,100635.92
2019-06-01T14:21:50.238Z,100630.69
2019-06-01T14:24:19.836Z,100627.14
2019-06-01T14:26:50.063Z,100624.94
2019-06-01T14:29:19.664Z,100617.02
2019-06-01T14:31:50.477Z,100615.30
2019-06-01T14:34:20.414Z,100609.92
2019-06-01T14:36:50.519Z,100597.96
2019-06-01T14:39:20.017Z,100595.88
2019-06-01T14:41:49.541Z,100591.50
2019-06-01T14:44:19.035Z,100595.54
2019-06-01T14:46:54.902Z,100593.48
2019-06-01T14:49:19.782Z,100593.98
2019-06-01T14:51:49.941Z,100594.09
2019-06-01T14:54:19.658Z,100590.55
2019-06-01T14:56:49.729Z,100599.48
2019-06-01T14:59:19.445Z,100596.45
2019-06-01T15:01:50.019Z,100587.16
2019-06-01T15:04:19.620Z,100580.42
2019-06-01T15:06:50.217Z,100576.75
2019-06-01T15:09:20.208Z,100574.28
2019-06-01T15:11:50.623Z,100569.61
2019-06-01T15:14:20.343Z,100562.60
2019-06-01T15:16:49.918Z,100554.95
2019-06-01T15:19:19.432Z,100557.22
2019-06-01T15:21:49.930Z,100560.13
2019-06-01T15:24:19.712Z,100550.09
2019-06-01T15:28:27.072Z,100536.45
2019-06-01T15:30:57.098Z,100557.53
2019-06-01T15:33:26.774Z,100544.19
2019-06-01T15:35:57.629Z,100539.66
2019-06-01T15:38:27.407Z,100534.98
2019-06-01T15:40:58.211Z,100520.17
2019-06-01T15:43:28.036Z,100526.33
2019-06-01T15:45:57.647Z,100520.94
2019-06-01T15:48:27.147Z,100517.72
2019-06-01T15:51:01.330Z,100514.05
2019-06-01T15:53:28.892Z,100514.05
2019-06-01T15:55:59.199Z,100504.14
2019-06-01T15:58:28.767Z,100494.34
2019-06-01T16:00:59.075Z,100499.73
2019-06-01T16:03:33.776Z,100487.63
2019-06-01T16:06:06.115Z,100485.94
2019-06-01T16:08:35.712Z,100485.94
2019-06-01T16:11:08.912Z,100483.73
2019-06-01T16:13:42.137Z,100479.70
2019-06-01T16:16:11.816Z,100477.09
2019-06-01T16:18:41.387Z,100480.80
2019-06-01T16:21:11.000Z,100475.55
2019-06-01T16:23:49.956Z,100471.50
2019-06-01T16:26:16.417Z,100470.16
2019-06-01T16:28:44.138Z,100469.33
2019-06-01T16:31:13.644Z,100457.22
2019-06-01T16:33:43.182Z,100461.26
2019-06-01T16:36:12.911Z,100442.05
2019-06-01T16:38:42.549Z,100436.30
2019-06-01T16:41:11.993Z,100435.81
2019-06-01T16:43:41.576Z,100434.95
2019-06-01T16:46:11.100Z,100420.67
2019-06-01T16:48:40.530Z,100422.02
2019-06-01T16:51:10.222Z,100414.92
2019-06-01T16:53:39.700Z,100414.77
2019-06-01T16:56:09.431Z,100409.38
2019-06-01T16:58:39.410Z,100409.91
2019-06-01T17:01:08.967Z,100407.22
2019-06-01T17:03:38.484Z,100398.28
2019-06-01T17:06:08.069Z,100401.83
2019-06-01T17:08:37.564Z,100396.94
2019-06-01T17:11:07.054Z,100392.41
2019-06-01T17:13:36.625Z,100392.05
2019-06-01T17:16:07.188Z,100381.28
2019-06-01T17:18:36.900Z,100380.19
2019-06-01T17:21:07.590Z,100375.66
2019-06-01T17:23:37.265Z,100373.13
2019-06-01T17:26:07.604Z,100376.80
2019-06-01T17:28:38.095Z,100373.41
2019-06-01T17:31:08.439Z,100368.02
2019-06-01T17:33:38.182Z,100371.70
2019-06-01T17:36:08.859Z,100367.33
2019-06-01T17:38:38.540Z,100365.62
2019-06-01T17:41:08.427Z,100374.19
2019-06-01T17:43:38.217Z,100379.23
2019-06-01T17:46:07.727Z,100399.91
2019-06-01T17:48:37.242Z,100423.28
2019-06-01T17:51:06.820Z,100418.75
2019-06-01T17:53:36.314Z,100422.58
2019-06-01T17:56:06.081Z,100437.39
2019-06-01T17:58:35.779Z,100430.78
2019-06-01T18:01:06.322Z,100423.56
2019-06-01T18:03:36.030Z,100422.22
2019-06-01T18:06:05.935Z,100433.47
2019-06-01T18:08:35.492Z,100429.10
2019-06-01T18:11:05.968Z,100441.34
2019-06-01T18:13:35.685Z,100435.62
2019-06-01T18:16:06.257Z,100429.38
2019-06-01T18:18:38.078Z,100438.44
2019-06-01T18:21:08.447Z,100442.62
2019-06-01T18:23:38.131Z,100441.77
2019-06-01T18:26:08.964Z,100436.55
2019-06-01T18:28:38.833Z,100449.14
2019-06-01T18:31:08.793Z,100437.16
2019-06-01T18:33:38.551Z,100444.41
2019-06-01T18:36:08.071Z,100438.66
2019-06-01T18:38:37.694Z,100439.63
2019-06-01T18:41:15.938Z,100445.17
2019-06-01T18:43:38.884Z,100444.69
2019-06-01T18:46:08.445Z,100452.05
2019-06-01T18:48:38.089Z,100448.51
2019-06-01T18:51:10.041Z,100459.27
2019-06-01T18:53:39.838Z,100457.71
2019-06-01T18:56:10.178Z,100455.14
2019-06-01T18:58:39.850Z,100465.08
2019-06-01T19:01:10.679Z,100467.41
2019-06-01T19:03:40.353Z,100473.64
2019-06-01T19:06:09.892Z,100471.08
2019-06-01T19:08:39.466Z,100473.43
2019-06-01T19:11:24.690Z,100484.19
2019-06-01T19:13:40.375Z,100487.86
2019-06-01T19:16:10.139Z,100488.34
2019-06-01T19:18:39.691Z,100484.80
2019-06-01T19:21:09.237Z,100483.98
2019-06-01T19:23:38.982Z,100472.84
2019-06-01T19:26:11.628Z,100480.92
2019-06-01T19:28:39.738Z,100484.95
2019-06-01T19:31:09.323Z,100484.09
2019-06-01T19:33:38.779Z,100480.55
2019-06-01T19:36:08.930Z,100491.31
2019-06-01T19:38:39.572Z,100487.80
2019-06-01T19:41:09.201Z,100492.66
2019-06-01T19:43:38.700Z,100495.87
2019-06-01T19:46:08.274Z,100497.55
2019-06-01T19:48:37.809Z,100491.47
2019-06-01T19:51:08.636Z,100506.62
2019-06-01T19:53:38.295Z,100508.80
2019-06-01T19:56:08.794Z,100497.55
2019-06-01T19:58:38.414Z,100497.55
2019-06-01T20:01:07.930Z,100501.59
2019-06-01T20:03:37.522Z,100514.55
2019-06-01T20:06:07.211Z,100515.04
2019-06-01T20:08:36.671Z,100516.38
2019-06-01T20:11:06.165Z,100517.23
2019-06-01T20:13:35.636Z,100515.89
2019-06-01T20:16:05.134Z,100517.23
2019-06-01T20:18:34.785Z,100515.41
2019-06-01T20:21:04.766Z,100519.93
2019-06-01T20:23:34.237Z,100522.13
2019-06-01T20:26:03.788Z,100520.30
2019-06-01T20:28:33.372Z,100523.48
2019-06-01T20:31:03.024Z,100520.78
2019-06-01T20:33:32.607Z,100524.83
2019-06-01T20:36:02.167Z,100524.83
2019-06-01T20:38:32.763Z,100524.45
2019-06-01T20:41:02.240Z,100515.53
2019-06-01T20:43:31.812Z,100521.77
2019-06-01T20:46:01.353Z,100515.31
2019-06-01T20:48:30.903Z,100515.68
2019-06-01T20:51:00.439Z,100512.63
2019-06-01T20:53:30.139Z,100515.83
2019-06-01T20:55:59.925Z,100526.07
2019-06-01T20:58:29.566Z,100521.21
2019-06-01T21:00:59.150Z,100520.84
2019-06-01T21:03:28.674Z,100527.08
2019-06-01T21:05:58.221Z,100525.73
2019-06-01T21:08:27.832Z,100527.56
2019-06-01T21:10:57.316Z,100529.06
2019-06-01T21:13:26.895Z,100533.92
2019-06-01T21:15:56.385Z,100527.72
2019-06-01T21:18:25.894Z,100528.55
2019-06-01T21:20:55.564Z,100528.70
2019-06-01T21:23:25.398Z,100532.73
2019-06-01T21:25:55.048Z,100532.73
2019-06-01T21:28:25.782Z,100531.39
2019-06-01T21:30:55.557Z,100526.00
2019-06-01T21:33:28.180Z,100524.66
2019-06-01T21:35:56.297Z,100518.91
2019-06-01T21:38:25.877Z,100519.77
2019-06-01T21:40:55.335Z,100519.28
2019-06-01T21:43:33.115Z,100530.41
2019-06-01T21:45:56.107Z,100518.80
2019-06-01T21:48:26.128Z,100524.66
2019-06-01T21:50:55.695Z,100523.31
2019-06-01T21:53:26.546Z,100526.98
2019-06-01T21:55:56.214Z,100527.84
2019-06-01T21:58:26.702Z,100529.33
2019-06-01T22:00:56.596Z,100528.48
2019-06-01T22:03:27.318Z,100531.66
2019-06-01T22:05:57.089Z,100533.16
2019-06-01T22:08:27.550Z,100532.66
2019-06-01T22:10:57.181Z,100530.46
2019-06-01T22:13:28.395Z,100534.98
2019-06-01T22:15:58.026Z,100542.20
2019-06-01T22:18:27.965Z,100541.83
2019-06-01T22:20:57.634Z,100537.80
2019-06-01T22:23:28.189Z,100539.66
2019-06-01T22:25:58.894Z,100540.48
2019-06-01T22:28:28.745Z,100544.89
2019-06-01T22:30:58.393Z,100545.86
2019-06-01T22:33:28.761Z,100546.72
2019-06-01T22:35:58.548Z,100542.69
2019-06-01T22:38:28.102Z,100556.02
2019-06-01T22:40:57.630Z,100560.54
2019-06-01T22:43:43.475Z,100562.25
2019-06-01T22:45:58.483Z,100560.91
2019-06-01T22:48:29.239Z,100561.88
2019-06-01T22:50:58.971Z,100557.84
2019-06-01T22:53:28.640Z,100560.17
2019-06-01T22:55:58.130Z,100561.18
2019-06-01T22:58:27.587Z,100556.28
2019-06-01T23:00:57.168Z,100569.73
2019-06-01T23:03:27.959Z,100567.53
2019-06-01T23:05:57.681Z,100569.85
2019-06-01T23:08:27.397Z,100569.03
2019-06-01T23:10:57.121Z,100572.20
2019-06-01T23:13:26.634Z,100574.52
2019-06-01T23:15:56.124Z,100577.70
2019-06-01T23:18:25.720Z,100576.50
2019-06-01T23:20:55.216Z,100580.54
2019-06-01T23:23:26.013Z,100581.03
2019-06-01T23:25:55.553Z,100580.69
2019-06-01T23:28:26.204Z,100587.05
2019-06-01T23:30:55.827Z,100587.53
2019-06-01T23:33:25.337Z,100585.33
2019-06-01T23:35:54.938Z,100594.73
2019-06-01T23:38:24.657Z,100596.61
2019-06-01T23:40:54.146Z,100591.71
2019-06-01T23:43:24.732Z,100589.52
2019-06-01T23:45:54.266Z,100584.99
2019-06-01T23:48:25.026Z,100588.66
2019-06-01T23:50:54.694Z,100586.82
2019-06-01T23:53:25.328Z,100578.38
2019-06-01T23:55:54.957Z,100575.20
2019-06-01T23:58:24.479Z,100573.16
